Time;durP1;ratioP1;P1;durP2;ratioP2;P2;SDS_P1;SDS_P2;PMS_P1;PMS_P2;Temp;Humidity;BMP_temperature;BMP_pressure;BME280_temperature;BME280_humidity;BME280_pressure;Samples;Min_cycle;Max_cycle;Signal;HPM_P1;HPM_P2
2021/12/19 00:09:26;;;;;;;3.15;2.28;;;;;;;-1.11;76.02;96957.25;5155453;27;20062;-59
2021/12/19 00:11:52;;;;;;;3.28;2.20;;;;;;;-1.10;76.33;96947.66;5136953;27;20034;-58
2021/12/19 00:14:20;;;;;;;3.33;2.10;;;;;;;-1.05;76.66;96943.38;5155245;27;20122;-56
2021/12/19 00:16:46;;;;;;;3.38;2.13;;;;;;;-0.94;76.20;96934.81;5153715;27;20031;-57
2021/12/19 00:19:12;;;;;;;3.88;2.60;;;;;;;-0.92;75.99;96919.75;5155282;27;20042;-56
2021/12/19 00:21:40;;;;;;;4.53;2.08;;;;;;;-0.92;75.76;96911.16;5153403;27;20501;-56
2021/12/19 00:24:07;;;;;;;4.78;2.13;;;;;;;-0.96;75.82;96900.41;5154725;27;20522;-57
2021/12/19 00:26:33;;;;;;;3.35;2.33;;;;;;;-0.97;76.22;96898.84;5154394;27;20038;-56
2021/12/19 00:29:03;;;;;;;3.28;2.25;;;;;;;-0.92;76.32;96890.34;5154919;27;20600;-58
2021/12/19 00:31:29;;;;;;;5.03;2.10;;;;;;;-1.00;76.40;96877.69;5152918;27;20046;-56
2021/12/19 00:33:56;;;;;;;4.43;2.50;;;;;;;-1.01;75.94;96876.88;5154472;27;20054;-57
2021/12/19 00:36:22;;;;;;;2.80;2.08;;;;;;;-1.00;76.95;96864.69;5153421;27;20083;-55
2021/12/19 00:38:48;;;;;;;2.97;1.88;;;;;;;-0.99;76.18;96858.47;5154603;27;20583;-56
2021/12/19 00:41:15;;;;;;;3.47;2.20;;;;;;;-1.03;76.24;96842.53;5153160;27;20431;-57
2021/12/19 00:46:12;;;;;;;3.03;2.28;;;;;;;-1.22;76.59;96825.44;5153237;27;20068;-57
2021/12/19 00:48:46;;;;;;;3.15;1.98;;;;;;;-1.08;77.54;96816.41;5154642;27;20045;-56
2021/12/19 00:51:15;;;;;;;3.92;2.30;;;;;;;-1.01;77.44;96811.88;5154545;27;20070;-58
2021/12/19 00:53:42;;;;;;;3.42;2.35;;;;;;;-0.87;76.19;96799.44;5154592;27;20154;-57
2021/12/19 00:56:08;;;;;;;2.17;1.70;;;;;;;-0.92;76.41;96792.31;5154422;27;20055;-58
2021/12/19 00:58:34;;;;;;;2.80;2.15;;;;;;;-0.88;76.48;96776.25;5154517;27;20415;-57
2021/12/19 01:01:02;;;;;;;2.65;2.15;;;;;;;-0.95;76.29;96766.78;5153118;27;20042;-57
2021/12/19 01:03:28;;;;;;;4.68;1.95;;;;;;;-0.94;76.11;96762.38;5152355;27;20035;-56
2021/12/19 01:05:53;;;;;;;3.13;2.28;;;;;;;-0.93;76.27;96759.53;5153821;27;20042;-57
2021/12/19 01:08:19;;;;;;;3.72;2.03;;;;;;;-0.92;76.57;96750.72;5152858;27;20484;-58
2021/12/19 01:10:46;;;;;;;7.85;4.05;;;;;;;-0.91;76.44;96738.53;5152839;27;20043;-57
2021/12/19 01:13:13;;;;;;;2.85;2.00;;;;;;;-0.85;76.09;96731.59;5153751;27;20054;-58
2021/12/19 01:15:39;;;;;;;2.08;1.88;;;;;;;-0.97;76.18;96727.22;5153304;27;20079;-57
2021/12/19 01:18:05;;;;;;;4.10;1.83;;;;;;;-1.18;76.90;96713.00;5153880;27;20034;-59
2021/12/19 01:20:32;;;;;;;3.70;2.10;;;;;;;-1.08;77.46;96712.44;5154115;27;20046;-57
2021/12/19 01:22:59;;;;;;;3.65;2.15;;;;;;;-0.98;76.85;96704.03;5153845;27;20043;-57
2021/12/19 01:25:25;;;;;;;2.80;1.98;;;;;;;-1.01;76.96;96694.09;5152391;27;20039;-57
2021/12/19 01:27:51;;;;;;;2.05;1.63;;;;;;;-0.93;76.90;96678.13;5153698;27;20341;-58
2021/12/19 01:30:17;;;;;;;2.22;1.80;;;;;;;-0.97;76.28;96671.81;5151959;27;20195;-56
2021/12/19 01:32:44;;;;;;;2.65;1.92;;;;;;;-0.89;77.16;96673.25;5152116;27;20129;-58
2021/12/19 01:35:12;;;;;;;3.42;2.22;;;;;;;-1.02;76.53;96656.13;5153624;27;20038;-56
2021/12/19 01:37:38;;;;;;;3.35;2.00;;;;;;;-0.99;76.96;96643.44;5152223;27;20086;-58
2021/12/19 01:40:05;;;;;;;3.67;2.10;;;;;;;-0.87;77.33;96645.22;5153242;27;20035;-57
2021/12/19 01:42:34;;;;;;;4.10;1.80;;;;;;;-0.86;75.90;96646.78;5153372;27;20415;-57
2021/12/19 01:45:01;;;;;;;3.60;1.65;;;;;;;-0.83;76.30;96633.31;5152205;27;20038;-56
2021/12/19 01:47:27;;;;;;;3.47;2.22;;;;;;;-0.80;75.86;96623.25;5153630;27;20118;-58
2021/12/19 01:49:55;;;;;;;6.30;2.00;;;;;;;-0.92;75.93;96606.91;5151730;27;20076;-56
2021/12/19 01:52:22;;;;;;;3.50;2.30;;;;;;;-0.82;76.89;96598.50;5153305;27;20117;-57
2021/12/19 01:54:49;;;;;;;3.58;2.20;;;;;;;-0.89;75.52;96585.63;5153495;27;20066;-57
2021/12/19 01:57:15;;;;;;;2.25;1.90;;;;;;;-0.94;76.87;96575.16;5153171;27;20078;-56
2021/12/19 01:59:40;;;;;;;2.97;1.92;;;;;;;-0.89;76.74;96574.44;5148272;27;20099;-55
2021/12/19 02:02:06;;;;;;;3.97;2.25;;;;;;;-0.76;76.94;96563.78;5132437;27;20058;-57
2021/12/19 02:04:33;;;;;;;2.88;2.20;;;;;;;-0.84;75.91;96551.13;5140514;27;20034;-56
2021/12/19 02:06:59;;;;;;;2.55;2.03;;;;;;;-0.87;76.05;96547.19;5151872;27;20039;-57
2021/12/19 02:09:25;;;;;;;2.25;1.70;;;;;;;-0.96;76.42;96543.38;5151851;27;20050;-56
2021/12/19 02:11:52;;;;;;;2.97;2.10;;;;;;;-0.87;77.02;96530.81;5152966;27;20055;-55
2021/12/19 02:14:18;;;;;;;3.28;1.98;;;;;;;-0.87;76.46;96526.38;5152756;27;20050;-58
2021/12/19 02:16:44;;;;;;;4.03;2.22;;;;;;;-0.86;76.33;96516.75;5151941;27;20107;-57
2021/12/19 02:19:11;;;;;;;3.20;2.00;;;;;;;-0.98;76.13;96503.81;5153048;27;20035;-55
2021/12/19 02:21:37;;;;;;;2.10;1.90;;;;;;;-1.01;76.69;96494.69;5152834;27;20051;-55
2021/12/19 02:24:07;;;;;;;4.30;2.25;;;;;;;-1.02;76.70;96487.91;5151374;27;20496;-57
2021/12/19 02:26:33;;;;;;;2.50;2.00;;;;;;;-1.07;76.58;96484.44;5153153;27;20050;-55
2021/12/19 02:28:59;;;;;;;2.45;1.88;;;;;;;-0.96;77.47;96486.19;5152937;27;20034;-56
2021/12/19 02:31:27;;;;;;;2.33;2.00;;;;;;;-0.93;76.25;96477.91;5151708;27;20132;-57
2021/12/19 02:36:53;;;;;;;3.30;2.20;;;;;;;-0.91;76.57;96457.69;5151846;27;20042;-56
2021/12/19 02:50:09;;;;;;;3.40;2.05;;;;;;;-0.75;76.52;96411.88;5152114;27;20077;-57
2021/12/19 02:52:35;;;;;;;3.40;2.10;;;;;;;-0.71;76.06;96415.56;5152710;27;20070;-57
2021/12/19 02:55:00;;;;;;;3.10;2.13;;;;;;;-0.67;76.30;96423.69;5153670;27;20070;-56
2021/12/19 02:57:27;;;;;;;2.42;1.90;;;;;;;-0.69;76.11;96403.13;5155965;27;20055;-56
2021/12/19 02:59:52;;;;;;;2.97;2.00;;;;;;;-0.69;76.02;96377.88;5156494;27;20043;-56
2021/12/19 03:02:18;;;;;;;2.72;2.03;;;;;;;-0.70;75.82;96383.34;5156713;27;20392;-59
2021/12/19 03:04:58;;;;;;;4.05;2.30;;;;;;;-0.71;75.47;96379.97;5155053;27;20488;-56
2021/12/19 03:07:25;;;;;;;4.80;2.20;;;;;;;-0.78;75.97;96371.53;5156473;27;20034;-56
2021/12/19 03:18:08;;;;;;;2.17;1.92;;;;;;;-0.70;75.99;96349.53;5155972;27;20046;-55
2021/12/19 03:20:35;;;;;;;4.05;2.13;;;;;;;-0.61;75.94;96337.69;5134315;27;20047;-58
2021/12/19 03:23:02;;;;;;;2.85;2.05;;;;;;;-0.59;75.12;96333.03;5135458;27;20039;-57
2021/12/19 03:25:29;;;;;;;4.78;2.00;;;;;;;-0.52;75.40;96332.84;5144104;27;20102;-57
2021/12/19 03:27:55;;;;;;;5.82;2.10;;;;;;;-0.50;75.47;96315.97;5154937;27;20042;-56
2021/12/19 03:30:20;;;;;;;2.70;2.20;;;;;;;-0.47;75.56;96306.91;5156433;27;20129;-57
2021/12/19 03:32:46;;;;;;;3.30;1.95;;;;;;;-0.43;75.75;96309.81;5154412;27;20134;-57
2021/12/19 03:35:13;;;;;;;3.28;2.22;;;;;;;-0.43;75.27;96292.38;5156266;27;20403;-57
2021/12/19 03:37:39;;;;;;;2.40;1.85;;;;;;;-0.47;75.47;96291.28;5155530;27;20553;-57
2021/12/19 03:40:11;;;;;;;2.70;2.00;;;;;;;-0.46;75.10;96285.03;5155583;27;20121;-58
2021/12/19 03:42:40;;;;;;;2.08;1.60;;;;;;;-0.43;75.38;96289.75;5155500;27;20520;-56
2021/12/19 03:45:08;;;;;;;;;;;;;;;-0.36;75.62;96284.38;5120712;27;20038;-57
2021/12/19 03:47:34;;;;;;;2.15;1.95;;;;;;;-0.42;75.90;96275.72;5155362;27;20388;-57
2021/12/19 03:50:01;;;;;;;2.45;2.00;;;;;;;-0.38;75.14;96282.03;5155782;27;20046;-56
2021/12/19 03:52:28;;;;;;;2.50;1.80;;;;;;;-0.37;75.80;96261.97;5153949;27;20488;-56
2021/12/19 03:54:55;;;;;;;2.65;1.80;;;;;;;-0.37;75.59;96261.97;5155214;27;20035;-56
2021/12/19 03:57:21;;;;;;;9.23;1.95;;;;;;;-0.33;75.52;96258.63;5154055;27;20078;-56
2021/12/19 03:59:48;;;;;;;3.50;2.03;;;;;;;-0.48;75.55;96246.25;5153988;27;20074;-57
2021/12/19 04:02:25;;;;;;;2.50;1.90;;;;;;;-0.51;75.88;96238.91;5154844;27;20126;-56
2021/12/19 04:04:52;;;;;;;2.38;1.95;;;;;;;-0.51;76.27;96238.13;5153818;27;20038;-56
2021/12/19 04:07:17;;;;;;;2.42;1.88;;;;;;;-0.47;76.11;96232.22;5155270;27;20046;-56
2021/12/19 04:09:43;;;;;;;2.83;2.05;;;;;;;-0.40;76.13;96223.44;5155354;27;20499;-56
2021/12/19 04:12:09;;;;;;;2.85;1.90;;;;;;;-0.46;76.33;96223.38;5155015;27;20046;-57
2021/12/19 04:14:35;;;;;;;2.22;1.95;;;;;;;-0.43;75.73;96221.31;5154827;27;20035;-57
2021/12/19 04:17:02;;;;;;;2.13;1.73;;;;;;;-0.37;75.58;96208.13;5154718;27;20512;-56
2021/12/19 04:19:28;;;;;;;2.28;1.77;;;;;;;-0.35;75.32;96213.09;5153323;27;20042;-57
2021/12/19 04:21:55;;;;;;;1.85;1.58;;;;;;;-0.52;76.12;96192.34;5153990;27;20042;-56
2021/12/19 04:24:21;;;;;;;2.50;1.98;;;;;;;-0.54;75.68;96189.19;5153399;27;20042;-55
2021/12/19 04:26:46;;;;;;;2.58;1.95;;;;;;;-0.57;75.68;96184.47;5154770;27;20139;-57
2021/12/19 04:29:12;;;;;;;3.20;2.75;;;;;;;-0.55;77.17;96185.03;5154534;27;20433;-56
2021/12/19 04:31:40;;;;;;;2.03;1.70;;;;;;;-0.58;75.61;96182.91;5154722;27;20580;-56
2021/12/19 04:34:06;;;;;;;2.22;2.03;;;;;;;-0.61;75.65;96178.22;5154763;27;20038;-57
2021/12/19 04:36:37;;;;;;;3.88;2.10;;;;;;;-0.52;75.64;96176.75;5154383;27;20120;-56
2021/12/19 04:39:22;;;;;;;2.65;2.05;;;;;;;-0.50;75.97;96178.06;5153442;27;20570;-56
2021/12/19 04:57:58;;;;;;;5.75;2.90;;;;;;;-0.64;75.92;96137.06;5153062;27;20051;-59
2021/12/19 05:00:44;;;;;;;4.07;2.22;;;;;;;-0.56;76.61;96132.22;5152321;27;20500;-55
2021/12/19 05:06:11;;;;;;;3.13;2.05;;;;;;;-0.50;76.18;96117.41;5148062;27;20053;-56
2021/12/19 05:14:12;;;;;;;3.80;2.47;;;;;;;-0.40;75.99;96112.31;5132948;27;20120;-55
2021/12/19 05:16:41;;;;;;;2.83;2.20;;;;;;;-0.37;76.13;96104.00;5140797;27;20039;-58
2021/12/19 05:19:23;;;;;;;3.53;2.50;;;;;;;-0.31;75.90;96103.03;5151286;27;20054;-54
2021/12/19 05:21:52;;;;;;;3.17;2.25;;;;;;;-0.29;76.29;96100.19;5152099;27;20046;-57
2021/12/19 05:27:05;;;;;;;3.08;2.25;;;;;;;-0.47;76.32;96093.53;5153464;27;20066;-54
2021/12/19 05:29:31;;;;;;;3.70;2.50;;;;;;;-0.42;76.00;96090.94;5153623;27;20042;-58
2021/12/19 05:31:57;;;;;;;3.40;2.40;;;;;;;-0.46;76.52;96089.88;5153766;27;20050;-56
2021/12/19 05:34:23;;;;;;;3.92;2.67;;;;;;;-0.39;76.21;96085.25;5153758;27;20111;-57
2021/12/19 05:45:22;;;;;;;3.05;2.45;;;;;;;-0.30;76.04;96064.75;5152761;27;20396;-57
2021/12/19 05:47:50;;;;;;;4.25;2.55;;;;;;;-0.29;76.34;96064.53;5153631;27;20043;-56
2021/12/19 05:50:19;;;;;;;3.88;2.45;;;;;;;-0.20;76.66;96057.03;5135119;27;20042;-55
2021/12/19 05:52:46;;;;;;;3.08;2.40;;;;;;;-0.20;75.70;96057.03;5153224;27;20064;-55
2021/12/19 05:55:13;;;;;;;3.75;2.80;;;;;;;-0.10;76.01;96049.28;5153100;27;20164;-56
2021/12/19 05:57:39;;;;;;;5.15;2.60;;;;;;;0.01;76.21;96051.97;5152368;27;20058;-58
2021/12/19 06:00:09;;;;;;;4.88;2.88;;;;;;;0.04;74.87;96048.84;5131155;27;20046;-56
2021/12/19 06:02:35;;;;;;;2.97;2.13;;;;;;;-0.02;75.38;96042.84;5134191;27;20043;-55
2021/12/19 06:05:02;;;;;;;4.10;2.72;;;;;;;-0.08;75.44;96042.00;5134761;27;20459;-59
2021/12/19 06:07:29;;;;;;;4.95;2.80;;;;;;;-0.08;75.19;96041.25;5134831;27;20523;-57
2021/12/19 06:09:56;;;;;;;4.85;3.00;;;;;;;-0.16;75.45;96034.66;5152507;27;20039;-56
2021/12/19 06:12:22;;;;;;;4.50;2.63;;;;;;;-0.17;76.22;96019.31;5151386;27;20508;-56
2021/12/19 06:14:48;;;;;;;4.03;3.25;;;;;;;-0.09;75.54;96018.81;5096490;28;20046;-54
2021/12/19 06:17:14;;;;;;;6.82;3.80;;;;;;;-0.02;76.37;96022.78;5114087;28;20046;-56
2021/12/19 06:19:40;;;;;;;4.63;2.92;;;;;;;0.01;75.51;96013.69;5149132;27;20052;-56
2021/12/19 06:22:06;;;;;;;3.90;2.60;;;;;;;0.06;75.92;96024.13;5116835;27;20133;-58
2021/12/19 06:24:33;;;;;;;4.20;2.50;;;;;;;0.00;75.63;96012.13;5152110;27;20058;-56
2021/12/19 06:26:59;;;;;;;4.47;2.90;;;;;;;0.07;75.97;96011.91;5145665;27;20050;-55
2021/12/19 06:29:27;;;;;;;5.63;2.92;;;;;;;0.08;76.05;96010.84;5134671;27;20403;-55
2021/12/19 06:31:53;;;;;;;4.72;2.42;;;;;;;0.11;74.89;96005.13;5110137;27;20404;-56
2021/12/19 06:34:19;;;;;;;4.45;2.70;;;;;;;0.19;75.35;96000.22;5135365;27;20043;-57
2021/12/19 06:36:45;;;;;;;4.13;2.50;;;;;;;0.29;75.10;95989.06;5135320;27;20123;-54
2021/12/19 06:39:10;;;;;;;3.10;2.45;;;;;;;0.39;74.39;95993.53;5136143;27;20050;-57
2021/12/19 06:41:36;;;;;;;3.00;2.28;;;;;;;0.32;74.01;95983.34;5134379;27;20047;-56
2021/12/19 06:44:03;;;;;;;6.05;3.08;;;;;;;0.39;75.19;95988.34;5118029;27;20035;-56
2021/12/19 06:46:30;;;;;;;3.17;2.30;;;;;;;0.36;74.39;95984.41;5136097;27;20055;-54
2021/12/19 06:48:56;;;;;;;4.60;3.05;;;;;;;0.40;74.63;95982.84;5146680;27;20544;-56
2021/12/19 06:51:22;;;;;;;5.03;2.50;;;;;;;0.41;74.22;95981.03;5156718;27;20085;-54
2021/12/19 06:53:48;;;;;;;3.47;2.78;;;;;;;0.47;74.66;95982.59;5156158;27;20039;-57
2021/12/19 06:56:14;;;;;;;3.55;2.33;;;;;;;0.51;74.81;95970.66;5156528;27;20046;-53
2021/12/19 06:58:40;;;;;;;3.30;2.60;;;;;;;0.51;74.09;95975.09;5154787;27;20530;-56
2021/12/19 07:01:06;;;;;;;3.13;2.30;;;;;;;0.51;74.41;95975.84;5155066;27;20042;-53
2021/12/19 07:03:32;;;;;;;3.40;2.42;;;;;;;0.56;73.62;95969.88;5157103;27;20508;-57
2021/12/19 07:05:59;;;;;;;9.35;4.78;;;;;;;0.62;74.51;95961.81;5137577;27;20034;-56
2021/12/19 07:08:25;;;;;;;3.83;2.53;;;;;;;0.58;73.45;95950.31;5155885;27;20078;-56
2021/12/19 07:10:51;;;;;;;3.70;2.55;;;;;;;0.60;74.22;95958.69;5156231;27;20058;-53
2021/12/19 07:13:20;;;;;;;5.72;3.05;;;;;;;0.53;73.72;95950.34;5154348;27;20049;-56
2021/12/19 07:15:50;;;;;;;4.35;3.00;;;;;;;0.62;74.30;95948.78;5156562;27;20034;-54
2021/12/19 07:18:17;;;;;;;3.63;2.85;;;;;;;0.71;74.16;95946.47;5154954;27;20126;-56
2021/12/19 07:20:43;;;;;;;8.98;5.30;;;;;;;0.82;74.17;95949.84;5155545;27;20073;-57
2021/12/19 07:23:20;;;;;;;4.43;2.78;;;;;;;0.82;74.13;95944.63;5156121;27;20058;-57
2021/12/19 07:25:46;;;;;;;4.60;2.90;;;;;;;0.75;73.36;95944.13;5155986;27;20496;-56
2021/12/19 07:28:13;;;;;;;3.42;2.63;;;;;;;0.74;74.22;95945.94;5156374;27;20051;-55
2021/12/19 07:30:40;;;;;;;5.03;2.67;;;;;;;0.74;74.17;95942.56;5154847;27;20426;-56
2021/12/19 07:33:08;;;;;;;4.45;2.35;;;;;;;0.76;74.07;95935.25;5156223;27;20047;-54
2021/12/19 07:35:38;;;;;;;5.15;2.88;;;;;;;0.83;74.92;95933.19;5155696;27;20039;-55
2021/12/19 07:38:05;;;;;;;3.63;2.70;;;;;;;0.85;73.79;95928.47;5155815;27;20089;-55
2021/12/19 07:40:39;;;;;;;4.88;2.88;;;;;;;0.83;74.07;95915.72;5155353;27;20046;-56
2021/12/19 07:43:10;;;;;;;4.38;2.65;;;;;;;0.84;73.23;95919.88;5155645;27;20130;-57
2021/12/19 07:45:36;;;;;;;4.30;2.65;;;;;;;0.83;73.68;95923.53;5155898;27;20103;-57
2021/12/19 07:48:03;;;;;;;2.95;2.45;;;;;;;0.94;74.19;95926.13;5155893;27;20050;-57
2021/12/19 07:50:30;;;;;;;3.28;2.60;;;;;;;0.96;73.73;95921.44;5154249;27;20061;-55
2021/12/19 07:52:56;;;;;;;3.75;2.58;;;;;;;0.98;73.18;95924.59;5152836;27;20402;-56
2021/12/19 07:55:23;;;;;;;3.13;2.40;;;;;;;0.86;74.00;95919.63;5155763;27;20459;-57
2021/12/19 07:57:49;;;;;;;4.88;2.45;;;;;;;0.99;73.85;95915.72;5136569;27;20046;-56
2021/12/19 08:00:16;;;;;;;8.40;5.15;;;;;;;1.07;74.35;95912.59;5155163;27;20039;-56
2021/12/19 08:02:45;;;;;;;8.20;3.08;;;;;;;1.07;73.66;95905.53;5155190;27;20049;-57
2021/12/19 08:05:11;;;;;;;4.45;2.70;;;;;;;1.16;73.07;95905.78;5155460;27;20087;-56
2021/12/19 08:07:39;;;;;;;3.17;2.63;;;;;;;1.19;74.60;95891.44;5154052;27;20046;-57
2021/12/19 08:10:15;;;;;;;4.97;3.13;;;;;;;1.28;73.64;95895.09;5153869;27;20042;-57
2021/12/19 08:12:42;;;;;;;4.40;2.92;;;;;;;1.23;72.96;95895.84;5154139;27;20126;-55
2021/12/19 08:15:09;;;;;;;5.75;3.10;;;;;;;1.20;72.80;95885.94;5155354;27;20083;-58
2021/12/19 08:17:35;;;;;;;3.53;2.60;;;;;;;1.23;73.30;95897.69;5155147;27;20074;-56
2021/12/19 08:20:02;;;;;;;5.45;3.10;;;;;;;1.17;73.37;95889.09;5154088;27;20466;-57
2021/12/19 08:22:30;;;;;;;5.10;2.72;;;;;;;1.29;74.34;95886.19;5154401;27;20065;-57
2021/12/19 08:24:57;;;;;;;3.75;2.83;;;;;;;1.39;73.51;95878.38;5153248;27;20042;-57
2021/12/19 08:27:24;;;;;;;6.88;4.30;;;;;;;1.48;73.36;95886.44;5153501;27;20030;-55
2021/12/19 08:29:51;;;;;;;9.35;3.97;;;;;;;1.66;72.80;95893.69;5154235;27;20038;-57
2021/12/19 08:32:18;;;;;;;3.40;2.70;;;;;;;1.57;72.10;95850.91;5154232;27;20409;-56
2021/12/19 08:34:43;;;;;;;8.07;3.88;;;;;;;1.81;72.11;95887.66;5154665;27;20493;-56
2021/12/19 08:37:09;;;;;;;5.10;2.95;;;;;;;1.87;71.26;95881.34;5153258;27;20233;-57
2021/12/19 08:39:35;;;;;;;4.88;3.45;;;;;;;1.94;71.61;95881.06;5153429;27;20411;-56
2021/12/19 08:42:01;;;;;;;5.03;3.00;;;;;;;1.88;71.50;95882.91;5154433;27;20051;-55
2021/12/19 08:44:27;;;;;;;6.13;3.25;;;;;;;1.89;71.39;95879.25;5153014;27;20034;-56
2021/12/19 08:46:53;;;;;;;4.60;3.00;;;;;;;2.01;71.93;95876.34;5154357;27;20046;-59
2021/12/19 08:49:19;;;;;;;8.18;3.10;;;;;;;2.05;71.64;95880.75;5153230;27;20174;-55
2021/12/19 08:51:45;;;;;;;4.68;2.40;;;;;;;2.12;71.59;95877.06;5154487;27;20088;-57
2021/12/19 08:54:11;;;;;;;5.65;2.45;;;;;;;2.13;71.59;95874.19;5152939;27;20042;-59
2021/12/19 08:56:37;;;;;;;3.97;2.50;;;;;;;1.99;70.83;95871.38;5152019;27;20051;-58
2021/12/19 08:59:04;;;;;;;6.10;2.42;;;;;;;1.86;70.95;95873.81;5154497;27;20046;-59
2021/12/19 09:01:31;;;;;;;4.97;2.58;;;;;;;1.83;72.16;95864.66;5152665;27;20043;-58
2021/12/19 09:03:58;;;;;;;4.35;2.70;;;;;;;1.95;72.63;95859.13;5152695;27;20034;-58
2021/12/19 09:06:24;;;;;;;5.15;2.63;;;;;;;2.03;72.01;95848.13;5154091;27;20511;-59
2021/12/19 09:08:49;;;;;;;7.43;3.03;;;;;;;1.71;70.77;95823.19;5153220;27;20041;-59
2021/12/19 09:11:15;;;;;;;3.88;2.78;;;;;;;2.03;72.13;95845.50;5152677;27;20039;-57
2021/12/19 09:13:41;;;;;;;2.97;2.17;;;;;;;2.16;71.37;95836.28;5134969;27;20038;-58
2021/12/19 09:16:07;;;;;;;3.95;2.45;;;;;;;2.33;72.33;95839.34;5152857;27;20403;-58
2021/12/19 09:18:33;;;;;;;3.88;2.20;;;;;;;2.43;71.06;95838.47;5153222;27;20504;-56
2021/12/19 09:20:59;;;;;;;2.50;2.28;;;;;;;2.51;71.16;95832.69;5152412;27;20042;-56
2021/12/19 09:23:25;;;;;;;5.28;2.30;;;;;;;2.54;70.75;95837.34;5153880;27;20092;-56
2021/12/19 09:25:50;;;;;;;3.20;2.28;;;;;;;2.58;70.89;95837.59;5153529;27;20039;-57
2021/12/19 09:28:18;;;;;;;3.20;2.28;;;;;;;2.61;70.65;95826.56;5152439;27;20416;-56
2021/12/19 09:30:44;;;;;;;2.85;1.98;;;;;;;2.66;70.19;95832.56;5153984;27;20445;-57
2021/12/19 09:33:10;;;;;;;4.85;2.50;;;;;;;2.77;70.41;95832.50;5152010;27;20058;-59
2021/12/19 09:35:36;;;;;;;2.33;2.00;;;;;;;2.81;70.40;95823.81;5153347;27;20067;-58
2021/12/19 09:38:04;;;;;;;5.18;2.50;;;;;;;2.94;69.99;95827.59;5152931;27;20046;-60
2021/12/19 09:40:34;;;;;;;2.60;2.08;;;;;;;3.00;69.83;95820.50;5152963;27;20050;-57
2021/12/19 09:43:08;;;;;;;3.75;2.28;;;;;;;2.98;68.68;95817.41;5151092;27;20042;-57
2021/12/19 09:45:35;;;;;;;3.20;2.00;;;;;;;2.99;69.68;95801.41;5152971;27;20463;-55
2021/12/19 09:48:01;;;;;;;4.45;2.17;;;;;;;3.02;70.02;95813.16;5153310;27;20042;-58
2021/12/19 09:50:30;;;;;;;5.32;2.38;;;;;;;2.91;69.70;95807.22;5153488;27;20117;-63
2021/12/19 09:52:56;;;;;;;5.00;2.13;;;;;;;2.91;70.21;95807.22;5152960;27;20109;-57
2021/12/19 09:55:22;;;;;;;8.95;4.85;;;;;;;2.95;69.84;95805.66;5153584;27;20460;-57
2021/12/19 09:57:50;;;;;;;3.85;2.38;;;;;;;2.98;69.92;95809.56;5152653;27;20145;-56
2021/12/19 10:00:17;;;;;;;2.53;2.00;;;;;;;3.00;69.39;95799.56;5153263;27;20496;-57
2021/12/19 10:02:43;;;;;;;2.60;2.03;;;;;;;3.04;69.06;95800.59;5150720;27;20461;-56
2021/12/19 10:05:18;;;;;;;3.90;2.35;;;;;;;3.08;69.50;95798.97;5152977;27;20049;-57
2021/12/19 10:07:54;;;;;;;2.25;1.90;;;;;;;3.18;69.44;95794.44;5152085;27;20039;-55
2021/12/19 10:10:33;;;;;;;1.95;1.50;;;;;;;3.24;68.50;95795.16;5151061;27;20041;-53
2021/12/19 10:13:00;;;;;;;2.10;1.90;;;;;;;3.34;69.41;95791.63;5153267;27;20066;-56
2021/12/19 10:15:41;;;;;;;1.80;1.70;;;;;;;3.36;68.42;95782.44;5152870;27;20038;-56
2021/12/19 10:18:07;;;;;;;4.40;2.00;;;;;;;3.47;68.78;95784.94;5152127;27;20092;-55
2021/12/19 10:20:43;;;;;;;3.45;2.40;;;;;;;3.34;68.78;95758.38;5152907;27;20042;-57
2021/12/19 10:23:12;;;;;;;2.83;2.25;;;;;;;3.56;68.94;95773.59;5152465;27;20042;-56
2021/12/19 10:25:39;;;;;;;3.50;2.17;;;;;;;3.58;68.26;95768.81;5152857;27;20043;-58
2021/12/19 10:28:09;;;;;;;2.65;1.85;;;;;;;3.60;68.87;95771.19;5117378;27;20039;-58
2021/12/19 10:30:38;;;;;;;3.45;2.35;;;;;;;3.60;68.24;95771.19;5153303;27;20423;-57
2021/12/19 10:33:13;;;;;;;1.92;1.63;;;;;;;3.49;67.68;95769.75;5133623;27;20591;-58
2021/12/19 10:35:42;;;;;;;1.98;1.63;;;;;;;3.36;69.59;95764.13;5153224;27;20042;-58
2021/12/19 10:38:20;;;;;;;2.75;2.08;;;;;;;3.40;69.38;95772.97;5153073;27;20584;-57
2021/12/19 10:40:51;;;;;;;3.30;2.30;;;;;;;3.35;68.53;95773.06;5151272;27;20049;-55
2021/12/19 10:43:18;;;;;;;2.80;1.90;;;;;;;3.29;68.43;95768.13;5151518;27;20524;-54
2021/12/19 10:45:44;;;;;;;2.50;1.92;;;;;;;3.19;69.31;95769.81;5152234;27;20066;-60
2021/12/19 10:48:21;;;;;;;3.00;2.10;;;;;;;3.14;69.35;95769.06;5134211;27;20070;-59
2021/12/19 10:50:58;;;;;;;4.30;2.35;;;;;;;3.11;70.37;95762.56;5151299;27;20126;-54
2021/12/19 10:53:34;;;;;;;4.53;2.50;;;;;;;3.02;70.79;95761.59;5151901;27;20066;-57
2021/12/19 10:56:02;;;;;;;3.13;1.98;;;;;;;3.03;69.30;95760.56;5123824;27;20124;-60
2021/12/19 10:58:33;;;;;;;5.57;2.80;;;;;;;3.05;69.91;95757.66;5151610;27;20066;-59
2021/12/19 11:01:14;;;;;;;6.13;2.15;;;;;;;3.04;70.31;95759.50;5150799;27;20047;-58
2021/12/19 11:03:54;;;;;;;3.55;2.35;;;;;;;2.92;70.06;95759.09;5152318;27;20039;-58
2021/12/19 11:06:22;;;;;;;5.70;2.40;;;;;;;2.95;71.00;95755.94;5152096;27;20038;-57
2021/12/19 11:08:50;;;;;;;3.25;2.20;;;;;;;2.82;71.22;95757.34;5152546;27;20054;-57
2021/12/19 11:11:50;;;;;;;9.50;2.30;;;;;;;2.75;71.04;95756.13;5133721;27;20062;-57
2021/12/19 11:14:20;;;;;;;6.55;2.67;;;;;;;2.65;71.18;95752.56;5152142;27;20519;-57
2021/12/19 11:16:47;;;;;;;3.13;2.10;;;;;;;2.66;70.66;95750.72;5132258;27;20043;-56
2021/12/19 11:19:13;;;;;;;2.95;2.28;;;;;;;2.60;71.55;95733.50;5147303;27;20460;-55
2021/12/19 11:21:41;;;;;;;4.15;2.35;;;;;;;2.66;71.60;95748.88;5155792;27;20624;-55
2021/12/19 11:24:15;;;;;;;4.57;2.45;;;;;;;2.74;71.43;95750.13;5154138;27;20114;-54
2021/12/19 11:26:43;;;;;;;2.67;2.22;;;;;;;2.76;71.24;95747.22;5155200;27;20043;-56
2021/12/19 11:29:10;;;;;;;3.55;2.15;;;;;;;2.76;71.35;95747.22;5155324;27;20066;-57
2021/12/19 11:31:38;;;;;;;3.67;2.35;;;;;;;2.52;71.20;95736.72;5155471;27;20054;-57
2021/12/19 11:34:03;;;;;;;4.20;2.20;;;;;;;2.52;71.31;95741.94;5154347;27;20038;-54
2021/12/19 11:36:35;;;;;;;3.40;2.17;;;;;;;2.42;71.69;95746.22;5154275;27;20461;-55
2021/12/19 11:39:04;;;;;;;3.95;2.35;;;;;;;2.36;70.75;95747.31;5154490;27;20412;-58
2021/12/19 11:41:31;;;;;;;4.22;2.50;;;;;;;2.19;71.13;95739.84;5154316;27;20042;-55
2021/12/19 11:44:01;;;;;;;6.18;3.25;;;;;;;2.20;72.43;95738.00;5136945;27;20118;-58
2021/12/19 11:46:55;;;;;;;3.53;2.50;;;;;;;2.30;71.60;95739.78;5155974;27;20271;-58
2021/12/19 11:49:25;;;;;;;3.67;2.80;;;;;;;2.30;71.70;95727.50;5155021;27;20047;-57
2021/12/19 11:52:27;;;;;;;4.28;2.30;;;;;;;2.28;71.69;95727.75;5155650;27;20051;-61
2021/12/19 11:55:14;;;;;;;5.82;2.42;;;;;;;2.31;71.33;95736.13;5143897;27;20472;-60
2021/12/19 11:57:41;;;;;;;3.88;2.60;;;;;;;2.26;71.35;95732.50;5154181;27;20091;-57
2021/12/19 12:00:32;;;;;;;4.53;3.78;;;;;;;2.24;71.91;95729.38;5153999;27;20121;-59
2021/12/19 12:03:12;;;;;;;5.55;2.97;;;;;;;2.11;71.92;95737.81;5155338;27;20129;-61
2021/12/19 12:05:46;;;;;;;5.93;3.42;;;;;;;2.10;72.04;95736.25;5119001;27;20046;-60
2021/12/19 12:08:20;;;;;;;4.00;2.65;;;;;;;2.09;72.00;95731.28;5155095;27;20047;-59
2021/12/19 12:10:56;;;;;;;5.07;2.95;;;;;;;2.16;72.02;95729.94;5153153;27;20045;-59
2021/12/19 12:13:35;;;;;;;3.67;2.95;;;;;;;2.13;72.03;95735.72;5155125;27;20072;-59
2021/12/19 12:18:41;;;;;;;5.38;3.13;;;;;;;2.03;72.39;95736.56;5154603;27;20041;-59
2021/12/19 12:21:25;;;;;;;4.47;2.83;;;;;;;2.00;72.84;95744.97;5154608;27;20070;-56
2021/12/19 12:24:00;;;;;;;3.63;2.30;;;;;;;2.01;72.92;95733.44;5154306;27;20314;-58
2021/12/19 12:26:32;;;;;;;4.75;2.53;;;;;;;2.05;73.12;95728.44;5154210;27;20043;-58
2021/12/19 12:28:58;;;;;;;2.83;2.17;;;;;;;2.11;72.37;95718.75;5153130;27;20066;-58
2021/12/19 12:31:24;;;;;;;5.10;2.35;;;;;;;2.17;72.85;95723.66;5152774;27;20089;-60
2021/12/19 12:33:53;;;;;;;5.35;2.97;;;;;;;2.13;72.47;95717.44;5152590;27;20031;-57
2021/12/19 12:36:19;;;;;;;4.05;2.72;;;;;;;2.30;72.42;95721.50;5117934;27;20057;-56
2021/12/19 12:38:49;;;;;;;4.88;2.10;;;;;;;2.27;72.17;95717.59;5153537;27;20418;-60
2021/12/19 12:41:28;;;;;;;2.42;1.95;;;;;;;2.28;72.38;95719.91;5153487;27;20102;-54
2021/12/19 12:43:58;;;;;;;4.67;2.47;;;;;;;2.33;71.92;95726.19;5134188;27;20043;-58
2021/12/19 12:46:25;;;;;;;3.65;2.17;;;;;;;2.29;71.78;95718.06;5129257;27;20314;-65
2021/12/19 12:48:57;;;;;;;6.00;2.53;;;;;;;2.27;71.92;95717.59;5148911;27;20389;-60
2021/12/19 12:51:34;;;;;;;2.55;2.13;;;;;;;2.13;72.31;95717.44;5152299;27;20043;-61
2021/12/19 12:54:15;;;;;;;4.60;2.35;;;;;;;2.10;72.35;95710.13;5131637;27;20057;-56
2021/12/19 12:56:52;;;;;;;2.85;1.95;;;;;;;2.04;72.16;95722.44;5132909;27;20043;-61